createdAt,value
2022-10-11T00:08:56.204Z,12.19
2022-10-11T00:28:56.173Z,12.41
2022-10-11T00:48:56.148Z,12.48
2022-10-11T01:08:56.137Z,12.62
2022-10-11T01:28:56.106Z,12.65
2022-10-11T01:48:56.081Z,12.71
2022-10-11T02:08:56.093Z,12.81
2022-10-11T02:28:56.036Z,12.86
2022-10-11T02:48:56.012Z,12.84
2022-10-11T03:08:55.988Z,12.93
2022-10-11T03:28:55.980Z,12.95
2022-10-11T03:48:55.932Z,12.95
2022-10-11T04:08:55.909Z,13.02
2022-10-11T04:28:55.962Z,13.03
2022-10-11T04:48:55.918Z,13.11
2022-10-11T05:08:55.877Z,13.15
2022-10-11T05:28:55.840Z,13.15
2022-10-11T05:48:55.838Z,13.12
2022-10-11T06:08:55.809Z,13.21
2022-10-11T06:28:55.750Z,13.31
2022-10-11T06:48:55.874Z,13.32
2022-10-11T07:08:55.765Z,13.47
2022-10-11T07:28:55.676Z,13.65
2022-10-11T07:48:55.803Z,13.78
2022-10-11T08:08:55.763Z,13.92
2022-10-11T08:28:55.698Z,14.22
2022-10-11T08:48:55.581Z,14.47
2022-10-11T09:08:55.559Z,14.69
2022-10-11T09:28:55.671Z,14.88
2022-10-11T09:48:55.504Z,15.03
2022-10-11T10:08:55.470Z,15.09
2022-10-11T10:28:55.454Z,15.32
2022-10-11T10:48:55.425Z,15.54
2022-10-11T11:08:55.500Z,15.96
2022-10-11T11:28:55.379Z,16.41
2022-10-11T11:48:55.350Z,16.24
2022-10-11T12:08:55.323Z,16.29
2022-10-11T12:28:55.303Z,16.41
2022-10-11T12:48:55.276Z,16.44
2022-10-11T13:08:55.233Z,16.44
2022-10-11T13:28:55.215Z,16.28
2022-10-11T13:48:55.192Z,16.46
2022-10-11T14:08:55.155Z,16.36
2022-10-11T14:28:55.140Z,16.33
2022-10-11T14:48:55.103Z,16.28
2022-10-11T15:08:55.090Z,16.13
2022-10-11T15:28:55.058Z,16.02
2022-10-11T15:48:55.049Z,15.80
2022-10-11T16:08:55.004Z,15.58
2022-10-11T16:28:54.977Z,15.28
2022-10-11T16:48:54.951Z,15.08
2022-10-11T17:08:54.961Z,15.05
2022-10-11T17:28:54.894Z,14.84
2022-10-11T17:48:54.962Z,14.74
2022-10-11T18:08:54.846Z,14.69
2022-10-11T18:28:54.811Z,14.56
2022-10-11T18:48:54.783Z,14.49
2022-10-11T19:08:54.759Z,14.40
2022-10-11T19:28:54.735Z,14.33
2022-10-11T19:48:54.798Z,14.26
2022-10-11T20:08:54.731Z,14.14
2022-10-11T20:28:54.735Z,14.16
2022-10-11T20:48:54.635Z,14.02
2022-10-11T21:08:54.733Z,14.01
2022-10-11T21:28:54.602Z,13.90
2022-10-11T21:48:54.660Z,13.84
2022-10-11T22:08:54.568Z,13.82
2022-10-11T22:28:54.514Z,13.63
2022-10-11T22:48:54.496Z,13.47
2022-10-11T23:08:54.578Z,13.23
2022-10-11T23:28:54.451Z,13.18
2022-10-11T23:48:54.419Z,13.11
